Time;durP1;ratioP1;P1;durP2;ratioP2;P2;SDS_P1;SDS_P2;PMS_P1;PMS_P2;Temp;Humidity;BMP_temperature;BMP_pressure;BME280_temperature;BME280_humidity;BME280_pressure;Samples;Min_cycle;Max_cycle;Signal;HPM_P1;HPM_P2
2022/07/31 00:00:32;;;;;;;11.93;9.15;;;;;;;20.76;70.24;101693.75;6264106;28;20629;-74
2022/07/31 00:03:53;;;;;;;11.27;8.60;;;;;;;21.04;68.99;101694.94;6262580;28;20231;-72
2022/07/31 00:07:14;;;;;;;10.63;8.25;;;;;;;20.59;70.43;101702.06;6267170;28;20250;-72
2022/07/31 00:10:37;;;;;;;9.23;8.25;;;;;;;20.68;70.04;101691.91;6261907;28;20231;-73
2022/07/31 00:13:58;;;;;;;9.63;7.70;;;;;;;20.73;70.42;101689.50;6261905;28;20219;-73
2022/07/31 00:17:18;;;;;;;10.15;9.05;;;;;;;20.56;70.29;101691.50;6259149;28;20223;-72
2022/07/31 00:20:39;;;;;;;13.38;9.95;;;;;;;20.53;70.59;101688.25;6255872;28;20275;-72
2022/07/31 00:24:00;;;;;;;7.25;6.38;;;;;;;20.60;70.15;101687.34;6234577;28;20224;-73
2022/07/31 00:27:23;;;;;;;10.85;8.65;;;;;;;20.54;70.17;101693.56;6239129;28;20232;-74
2022/07/31 00:30:44;;;;;;;9.68;7.60;;;;;;;20.71;69.42;101689.66;6233248;28;20231;-74
2022/07/31 00:34:07;;;;;;;8.60;7.90;;;;;;;20.73;69.26;101698.53;6232049;28;20414;-73
2022/07/31 00:37:28;;;;;;;10.40;8.90;;;;;;;20.63;69.43;101689.72;6253732;28;20611;-74
2022/07/31 00:40:51;;;;;;;9.82;8.98;;;;;;;20.55;69.14;101686.16;6251770;28;20236;-74
2022/07/31 00:44:13;;;;;;;12.45;8.27;;;;;;;20.73;68.54;101681.28;6264788;28;20231;-74
2022/07/31 00:47:34;;;;;;;7.40;6.45;;;;;;;20.61;69.00;101674.50;6254800;28;20235;-73
2022/07/31 00:50:56;;;;;;;9.05;8.18;;;;;;;20.44;69.23;101671.00;6258116;28;20231;-74
2022/07/31 00:54:17;;;;;;;13.52;8.85;;;;;;;20.26;69.82;101666.81;6258721;28;21775;-73
2022/07/31 00:57:38;;;;;;;9.18;8.27;;;;;;;20.17;70.07;101662.41;6257180;28;20238;-73
2022/07/31 01:01:00;;;;;;;9.13;7.03;;;;;;;20.31;69.69;101651.59;6256881;28;20251;-72
2022/07/31 01:04:22;;;;;;;9.95;8.55;;;;;;;20.21;69.72;101656.44;6260117;28;20239;-73
2022/07/31 01:07:43;;;;;;;9.95;8.93;;;;;;;20.10;70.42;101647.72;6234411;28;20224;-72
2022/07/31 01:11:08;;;;;;;10.32;9.25;;;;;;;20.00;70.77;101655.31;6235598;28;20310;-73
2022/07/31 01:14:40;;;;;;;10.68;9.60;;;;;;;20.02;70.66;101659.56;6241498;28;20269;-73
2022/07/31 01:18:03;;;;;;;9.18;7.88;;;;;;;20.05;69.99;101664.69;6238478;28;20236;-72
2022/07/31 01:21:31;;;;;;;8.80;6.90;;;;;;;20.04;69.97;101665.72;6262547;28;20227;-74
2022/07/31 01:25:03;;;;;;;8.90;7.43;;;;;;;20.18;69.91;101662.22;6239029;28;20223;-73
2022/07/31 01:29:03;;;;;;;9.82;8.27;;;;;;;20.17;69.66;101665.16;6215992;28;20224;-73
2022/07/31 01:32:28;;;;;;;8.05;6.93;;;;;;;20.06;69.61;101663.66;6254573;28;20523;-73
2022/07/31 01:36:02;;;;;;;8.10;7.30;;;;;;;19.97;70.31;101666.59;6254948;28;20743;-73
2022/07/31 01:39:24;;;;;;;7.28;5.90;;;;;;;20.10;69.41;101670.50;6258346;28;20838;-73
2022/07/31 01:42:50;;;;;;;8.43;7.63;;;;;;;19.91;70.34;101662.69;6257661;28;20267;-73
2022/07/31 01:46:19;;;;;;;6.97;6.32;;;;;;;20.04;69.92;101653.91;6256319;28;20226;-74
2022/07/31 01:49:43;;;;;;;7.00;6.25;;;;;;;20.09;69.51;101663.28;6257307;28;20223;-72
2022/07/31 01:53:06;;;;;;;8.40;7.68;;;;;;;20.03;70.22;101660.41;6263190;28;20516;-73
2022/07/31 01:56:30;;;;;;;8.20;7.40;;;;;;;20.06;69.80;101662.81;6240968;28;20221;-73
2022/07/31 01:59:55;;;;;;;10.27;8.32;;;;;;;20.04;70.14;101665.72;6226688;28;20223;-74
2022/07/31 02:03:38;;;;;;;16.77;15.13;;;;;;;19.80;70.89;101663.06;6246674;28;20220;-73
2022/07/31 02:07:02;;;;;;;17.90;16.20;;;;;;;19.88;70.62;101658.44;6257969;28;20683;-73
2022/07/31 02:10:25;;;;;;;10.95;9.77;;;;;;;19.89;70.96;101651.94;6260390;28;20243;-72
2022/07/31 02:13:47;;;;;;;10.60;9.15;;;;;;;19.76;71.61;101653.50;6254901;28;20231;-74
2022/07/31 02:17:09;;;;;;;11.15;9.98;;;;;;;19.72;71.22;101652.16;6275540;28;20251;-73
2022/07/31 02:20:51;;;;;;;12.02;8.80;;;;;;;19.67;71.78;101652.69;6257290;28;20235;-72
2022/07/31 02:24:13;;;;;;;13.95;9.32;;;;;;;19.74;71.46;101650.97;6262514;28;20255;-72
2022/07/31 02:27:36;;;;;;;10.05;9.15;;;;;;;19.59;72.00;101649.97;6242826;28;20228;-73
2022/07/31 02:30:58;;;;;;;10.02;9.00;;;;;;;19.35;72.72;101644.59;6264093;28;20516;-73
2022/07/31 02:34:19;;;;;;;9.68;8.65;;;;;;;19.54;71.81;101646.06;6260500;28;20597;-74
2022/07/31 02:37:43;;;;;;;7.93;7.13;;;;;;;19.48;72.53;101644.91;6258007;28;20235;-73
2022/07/31 02:41:05;;;;;;;10.27;9.23;;;;;;;19.51;71.72;101640.94;6257878;28;20219;-74
2022/07/31 02:44:27;;;;;;;11.32;8.23;;;;;;;19.58;71.96;101644.69;6269269;28;20231;-72
2022/07/31 02:47:49;;;;;;;9.15;8.45;;;;;;;19.36;72.36;101642.72;6265523;28;20215;-74
2022/07/31 02:51:11;;;;;;;9.35;8.45;;;;;;;19.24;73.15;101642.16;6266546;28;20309;-74
2022/07/31 02:54:38;;;;;;;9.02;8.13;;;;;;;19.39;71.98;101632.28;6233535;28;20224;-74
2022/07/31 02:57:59;;;;;;;10.60;8.85;;;;;;;19.29;72.70;101628.00;6259331;28;20239;-73
2022/07/31 03:01:20;;;;;;;12.55;9.45;;;;;;;19.43;72.40;101630.03;6263413;28;20617;-73
2022/07/31 03:04:42;;;;;;;10.32;9.10;;;;;;;19.43;72.59;101621.81;6245060;28;20839;-74
2022/07/31 03:08:04;;;;;;;9.68;8.77;;;;;;;19.35;72.62;101630.06;6262118;28;20243;-73
2022/07/31 03:11:29;;;;;;;10.90;9.80;;;;;;;19.36;72.32;101637.25;6244769;28;20240;-73
2022/07/31 03:14:50;;;;;;;13.52;12.27;;;;;;;19.24;73.07;101633.09;6256267;28;20231;-74
2022/07/31 03:18:13;;;;;;;10.32;9.18;;;;;;;19.29;72.65;101637.06;6259256;28;20231;-74
2022/07/31 03:21:36;;;;;;;13.50;12.00;;;;;;;19.11;73.09;101633.63;6271694;28;20255;-74
2022/07/31 03:24:57;;;;;;;12.55;11.40;;;;;;;18.90;73.70;101628.72;6248218;28;20222;-75
2022/07/31 03:28:20;;;;;;;12.43;11.30;;;;;;;18.92;74.01;101628.56;6264918;28;20227;-74
2022/07/31 03:31:41;;;;;;;12.60;11.50;;;;;;;19.06;73.40;101626.00;6267033;28;20235;-75
2022/07/31 03:35:02;;;;;;;11.30;10.23;;;;;;;19.12;73.98;101633.50;6262721;28;20223;-74
2022/07/31 03:38:23;;;;;;;13.50;12.20;;;;;;;19.08;73.36;101623.94;6267632;28;20528;-74
2022/07/31 03:41:46;;;;;;;10.23;9.32;;;;;;;19.03;74.21;101629.06;6271761;28;20230;-74
2022/07/31 03:45:10;;;;;;;11.57;10.48;;;;;;;19.13;73.39;101613.31;6271850;28;20227;-74
2022/07/31 03:48:32;;;;;;;11.02;9.90;;;;;;;19.08;73.74;101618.47;6247089;28;20314;-74
2022/07/31 03:51:54;;;;;;;13.52;10.63;;;;;;;19.29;72.94;101625.25;6244656;28;20231;-74
2022/07/31 03:55:14;;;;;;;12.23;10.45;;;;;;;19.14;73.25;101622.38;6255975;28;20227;-73
2022/07/31 03:58:36;;;;;;;11.57;10.30;;;;;;;19.17;73.17;101623.91;6282321;28;20235;-73
2022/07/31 04:02:00;;;;;;;10.15;9.35;;;;;;;19.15;73.65;101621.34;6271689;28;20314;-74
2022/07/31 04:05:31;;;;;;;13.25;9.93;;;;;;;19.09;73.58;101617.41;6272808;28;20223;-74
2022/07/31 04:08:52;;;;;;;11.40;10.38;;;;;;;18.89;74.64;101628.88;6269290;28;20243;-74
2022/07/31 04:12:13;;;;;;;9.73;8.80;;;;;;;18.84;74.81;101629.41;6247147;28;20509;-75
2022/07/31 04:15:34;;;;;;;8.98;8.18;;;;;;;19.05;74.61;101632.47;6272756;28;20231;-74
2022/07/31 04:18:57;;;;;;;10.85;8.75;;;;;;;19.26;73.46;101634.66;6268345;28;20250;-74
2022/07/31 04:22:18;;;;;;;9.35;8.50;;;;;;;19.35;73.06;101638.25;6267306;28;20711;-74
2022/07/31 04:25:39;;;;;;;11.95;10.88;;;;;;;19.10;73.94;101638.28;6271060;28;20235;-74
2022/07/31 04:29:16;;;;;;;11.63;10.52;;;;;;;19.10;74.32;101626.47;6257652;28;20263;-74
2022/07/31 04:32:37;;;;;;;18.45;11.90;;;;;;;19.14;73.88;101638.78;6263377;28;20292;-73
2022/07/31 04:36:03;;;;;;;12.18;10.90;;;;;;;19.33;74.03;101629.34;6260323;28;20254;-74
2022/07/31 04:39:24;;;;;;;12.45;11.32;;;;;;;19.47;72.75;101634.97;6244556;28;20356;-74
2022/07/31 04:42:45;;;;;;;11.60;10.38;;;;;;;19.62;72.08;101638.69;6250059;28;20227;-73
2022/07/31 04:46:06;;;;;;;12.38;11.27;;;;;;;19.51;72.66;101636.34;6266722;28;20239;-74
2022/07/31 04:49:27;;;;;;;10.85;9.95;;;;;;;19.62;72.60;101644.16;6250406;28;20223;-74
2022/07/31 04:52:49;;;;;;;10.52;9.48;;;;;;;19.71;71.90;101650.47;6252981;28;20507;-73
2022/07/31 05:00:00;;;;;;;13.32;11.52;;;;;;;19.58;72.41;101636.47;6204925;28;20598;-74
2022/07/31 05:03:23;;;;;;;9.75;9.00;;;;;;;19.53;72.91;101636.16;6236174;28;20223;-74
2022/07/31 05:06:46;;;;;;;12.50;10.98;;;;;;;19.26;73.65;101639.25;6266354;28;20247;-74
2022/07/31 05:11:21;;;;;;;12.05;10.95;;;;;;;19.39;73.23;101645.09;6257542;28;20230;-75
2022/07/31 05:13:51;;;;;;;11.65;10.70;;;;;;;19.66;72.69;101641.94;6251759;28;21954;-74
2022/07/31 05:17:12;;;;;;;13.60;12.20;;;;;;;19.86;71.38;101635.84;6226943;28;20228;-74
2022/07/31 05:20:47;;;;;;;12.25;11.10;;;;;;;19.56;72.42;101652.22;6259904;28;20246;-74
2022/07/31 05:24:19;;;;;;;11.70;10.60;;;;;;;19.53;72.79;101634.28;6258235;28;20234;-74
2022/07/31 05:27:53;;;;;;;12.25;11.25;;;;;;;19.21;73.83;101633.47;6227497;28;20268;-75
2022/07/31 05:31:15;;;;;;;13.52;12.30;;;;;;;19.07;74.43;101627.69;6253904;28;20231;-74
2022/07/31 05:34:36;;;;;;;12.52;10.80;;;;;;;19.23;74.22;101628.69;6235507;28;20557;-74
2022/07/31 05:37:57;;;;;;;12.27;11.05;;;;;;;19.58;72.72;101637.34;6260714;28;20537;-74
2022/07/31 05:41:33;;;;;;;9.73;8.73;;;;;;;19.80;72.63;101632.97;6257883;28;20227;-74
2022/07/31 05:45:13;;;;;;;12.10;11.07;;;;;;;20.08;71.03;101623.28;6257276;28;20234;-74
2022/07/31 05:48:34;;;;;;;11.40;10.25;;;;;;;20.30;70.34;101621.59;6274525;28;20226;-74
2022/07/31 05:51:56;;;;;;;13.27;10.30;;;;;;;20.43;69.31;101617.25;6286614;28;20231;-74
2022/07/31 05:55:18;;;;;;;11.65;10.02;;;;;;;20.82;68.54;101621.75;6273866;28;20271;-73
2022/07/31 05:59:01;;;;;;;11.68;10.50;;;;;;;20.61;68.63;101619.72;6273508;28;20247;-74
2022/07/31 06:02:25;;;;;;;11.40;9.35;;;;;;;20.93;67.59;101618.56;6259685;28;20625;-74
2022/07/31 06:06:16;;;;;;;10.00;9.00;;;;;;;21.14;66.08;101621.47;6265621;28;20239;-74
2022/07/31 06:09:38;;;;;;;10.65;9.23;;;;;;;21.41;64.38;101623.59;6264316;28;20344;-74
2022/07/31 06:12:59;;;;;;;8.93;7.97;;;;;;;21.21;65.32;101628.78;6266569;28;20227;-75
2022/07/31 06:16:20;;;;;;;9.05;8.20;;;;;;;21.08;65.20;101641.41;6254953;28;20227;-74
2022/07/31 06:19:42;;;;;;;9.10;7.57;;;;;;;20.68;64.59;101637.97;6261346;28;20243;-75
2022/07/31 06:23:05;;;;;;;9.43;8.48;;;;;;;20.65;65.92;101632.00;6263759;28;20219;-74
2022/07/31 06:26:30;;;;;;;9.15;8.05;;;;;;;20.75;66.82;101629.00;6264482;28;20243;-74
2022/07/31 06:29:51;;;;;;;10.10;8.27;;;;;;;20.83;66.94;101621.56;6245911;28;20267;-74
2022/07/31 06:33:12;;;;;;;9.95;9.10;;;;;;;21.32;65.56;101624.69;6240940;28;20235;-74
2022/07/31 06:36:35;;;;;;;10.32;9.40;;;;;;;21.27;65.81;101621.69;6252296;28;20561;-74
2022/07/31 06:39:57;;;;;;;13.77;12.23;;;;;;;20.94;66.07;101623.88;6261922;28;20256;-75
2022/07/31 06:43:36;;;;;;;10.85;9.82;;;;;;;21.29;66.23;101622.34;6270444;28;20698;-74
2022/07/31 06:47:22;;;;;;;15.43;11.25;;;;;;;21.37;65.05;101617.63;6266830;28;20223;-80
2022/07/31 06:50:49;;;;;;;23.20;21.20;;;;;;;21.62;65.33;101609.97;6271214;28;20239;-80
2022/07/31 06:54:23;;;;;;;12.45;11.45;;;;;;;21.08;66.14;101617.59;6256833;28;20826;-76
2022/07/31 06:57:45;;;;;;;12.23;10.75;;;;;;;21.09;65.80;101621.19;6267947;28;20223;-79
2022/07/31 07:01:06;;;;;;;11.25;10.15;;;;;;;21.10;65.55;101628.38;6244161;28;20235;-76
2022/07/31 07:04:28;;;;;;;10.50;9.52;;;;;;;21.21;64.75;101620.56;6253143;28;20223;-74
2022/07/31 07:07:49;;;;;;;14.60;11.93;;;;;;;20.33;66.67;101616.66;6264606;28;20509;-75
2022/07/31 07:11:12;;;;;;;10.48;9.60;;;;;;;20.59;66.45;101619.00;6251306;28;20543;-75
2022/07/31 07:14:33;;;;;;;11.77;10.25;;;;;;;20.61;65.19;101619.72;6249716;28;20240;-75
2022/07/31 07:17:55;;;;;;;10.70;9.50;;;;;;;20.49;65.02;101618.41;6237858;28;20598;-76
2022/07/31 07:21:27;;;;;;;9.40;8.60;;;;;;;20.51;63.93;101603.50;6254894;28;20235;-76
2022/07/31 07:24:48;;;;;;;11.25;8.88;;;;;;;20.76;62.47;101598.66;6261850;28;20255;-75
2022/07/31 07:28:17;;;;;;;7.97;7.38;;;;;;;21.11;61.05;101600.75;6262872;28;20260;-75
2022/07/31 07:31:38;;;;;;;7.95;6.82;;;;;;;21.39;60.52;101596.34;6264901;28;20239;-75
2022/07/31 07:34:59;;;;;;;9.40;5.80;;;;;;;21.62;59.56;101592.63;6253404;28;20687;-75
2022/07/31 07:38:39;;;;;;;5.85;5.25;;;;;;;21.32;60.06;101594.53;6243353;28;21353;-74
2022/07/31 07:42:01;;;;;;;7.43;5.25;;;;;;;21.16;60.35;101591.97;6247562;28;20667;-73
2022/07/31 07:45:24;;;;;;;4.32;3.92;;;;;;;21.54;59.34;101588.13;6257753;28;20228;-73
2022/07/31 07:48:44;;;;;;;5.82;5.00;;;;;;;21.14;61.46;101594.06;6242020;28;20234;-73
2022/07/31 07:52:11;;;;;;;8.45;7.65;;;;;;;21.05;62.92;101606.16;6262162;28;20303;-73
2022/07/31 07:55:32;;;;;;;6.88;5.35;;;;;;;21.41;62.48;101593.41;6254984;28;20258;-72
2022/07/31 07:59:12;;;;;;;6.75;6.05;;;;;;;21.91;61.93;101578.91;6259235;28;20333;-73
2022/07/31 08:02:53;;;;;;;7.80;5.35;;;;;;;21.68;60.38;101584.50;6256059;28;20511;-74
2022/07/31 08:06:14;;;;;;;6.25;4.72;;;;;;;21.62;58.77;101587.16;6232420;28;20239;-73
2022/07/31 08:09:36;;;;;;;7.80;5.63;;;;;;;21.22;60.47;101592.06;6261992;28;20254;-73
2022/07/31 08:13:16;;;;;;;6.78;5.00;;;;;;;20.92;62.28;101592.19;6259363;28;20231;-73
2022/07/31 08:16:56;;;;;;;7.15;4.90;;;;;;;20.91;63.10;101593.22;6251116;28;20231;-72
2022/07/31 08:20:18;;;;;;;6.22;4.57;;;;;;;21.29;62.46;101590.28;6257335;28;20235;-73
2022/07/31 08:23:39;;;;;;;7.55;6.10;;;;;;;21.58;61.70;101592.19;6271347;28;20247;-73
2022/07/31 08:30:40;;;;;;;6.57;5.45;;;;;;;21.37;62.70;101598.44;6248589;28;20239;-72
2022/07/31 08:34:02;;;;;;;3.95;3.55;;;;;;;21.96;61.42;101591.03;6239745;28;20250;-74
2022/07/31 08:37:25;;;;;;;5.22;4.75;;;;;;;21.54;62.08;101599.09;6239279;28;20232;-73
2022/07/31 08:40:48;;;;;;;3.28;2.80;;;;;;;21.83;61.64;101598.25;6248941;28;20617;-75
2022/07/31 08:44:09;;;;;;;4.32;3.97;;;;;;;21.95;60.82;101596.69;6248923;28;20235;-75
2022/07/31 08:47:32;;;;;;;5.35;4.95;;;;;;;21.07;63.01;101599.41;6247539;28;20236;-76
2022/07/31 08:51:02;;;;;;;5.05;4.45;;;;;;;21.55;62.08;101598.03;6275038;28;20230;-75
2022/07/31 08:54:44;;;;;;;4.97;4.47;;;;;;;22.16;59.79;101583.00;6274528;28;20258;-75
2022/07/31 08:58:06;;;;;;;4.43;4.03;;;;;;;21.71;59.72;101583.28;6275300;28;20219;-75
2022/07/31 09:01:27;;;;;;;4.68;3.83;;;;;;;22.05;59.40;101580.78;6288472;28;20258;-74
2022/07/31 09:04:50;;;;;;;3.65;3.20;;;;;;;22.25;58.73;101581.84;6278541;28;20782;-76
2022/07/31 09:08:11;;;;;;;4.68;3.60;;;;;;;22.07;57.74;101582.28;6267264;28;20227;-75
2022/07/31 09:11:34;;;;;;;3.60;3.17;;;;;;;22.68;56.40;101577.22;6277252;28;20243;-76
2022/07/31 09:15:26;;;;;;;6.18;3.78;;;;;;;22.73;55.97;101575.59;6265456;28;20278;-77
2022/07/31 09:18:55;;;;;;;5.05;3.03;;;;;;;22.48;56.80;101576.16;6250614;28;20247;-74
2022/07/31 09:22:20;;;;;;;3.45;3.15;;;;;;;22.68;56.80;101569.81;6269476;28;20251;-75
2022/07/31 09:25:51;;;;;;;6.05;4.63;;;;;;;22.64;56.72;101567.66;6255600;28;20228;-75
2022/07/31 09:29:13;;;;;;;4.68;3.90;;;;;;;22.59;56.83;101570.19;6268562;28;20239;-75
2022/07/31 09:32:35;;;;;;;3.67;3.10;;;;;;;22.76;55.59;101561.44;6257632;28;20227;-75
2022/07/31 09:36:08;;;;;;;3.20;2.88;;;;;;;23.37;55.39;101548.78;6252444;28;20223;-76
2022/07/31 09:39:30;;;;;;;5.57;3.28;;;;;;;22.88;55.30;101553.50;6280071;28;20238;-76
2022/07/31 09:43:24;;;;;;;4.53;3.83;;;;;;;23.29;55.42;101545.31;6256675;28;20507;-73
2022/07/31 09:46:49;;;;;;;5.65;3.92;;;;;;;23.28;54.92;101549.97;6275998;28;20247;-75
2022/07/31 09:50:10;;;;;;;4.85;3.13;;;;;;;22.76;55.72;101550.44;6275544;28;20227;-74
2022/07/31 09:53:40;;;;;;;7.95;4.05;;;;;;;22.93;55.22;101545.50;6265001;28;20255;-76
2022/07/31 09:57:14;;;;;;;4.20;3.63;;;;;;;22.60;54.92;101549.88;6270485;28;20337;-75
2022/07/31 10:00:42;;;;;;;4.53;3.83;;;;;;;22.94;55.50;101533.44;6277868;28;20242;-76
2022/07/31 10:04:06;;;;;;;4.47;3.67;;;;;;;23.81;52.71;101535.44;6278772;28;20227;-76
2022/07/31 10:07:34;;;;;;;5.03;2.92;;;;;;;24.51;51.64;101534.97;6264897;28;20219;-74
2022/07/31 10:11:03;;;;;;;4.10;2.88;;;;;;;24.99;50.46;101524.59;6274609;28;20516;-74
2022/07/31 10:14:38;;;;;;;4.63;4.15;;;;;;;25.11;49.96;101519.28;6275430;28;20223;-73
2022/07/31 10:18:01;;;;;;;9.05;4.05;;;;;;;24.83;49.91;101516.75;6270798;28;20220;-74
2022/07/31 10:21:40;;;;;;;2.95;2.65;;;;;;;25.32;48.91;101508.81;6275503;28;20235;-74
2022/07/31 10:25:19;;;;;;;3.00;2.20;;;;;;;26.17;47.16;101513.16;6276225;28;20553;-74
2022/07/31 10:28:41;;;;;;;3.05;2.85;;;;;;;26.57;46.71;101506.25;6273544;28;20231;-76
2022/07/31 10:32:02;;;;;;;5.90;3.50;;;;;;;25.70;48.00;101494.25;6272632;28;20227;-73
2022/07/31 10:35:24;;;;;;;4.78;3.35;;;;;;;26.68;47.74;101490.84;6277942;28;20288;-72
2022/07/31 10:39:03;;;;;;;3.42;2.28;;;;;;;26.40;46.35;101491.28;6288072;28;20578;-73
2022/07/31 10:42:48;;;;;;;3.88;2.58;;;;;;;26.55;45.15;101489.03;6282859;28;20235;-72
2022/07/31 10:46:09;;;;;;;2.70;2.17;;;;;;;27.02;43.59;101490.31;6262173;28;20215;-72
2022/07/31 10:49:48;;;;;;;2.53;2.08;;;;;;;26.78;44.07;101485.66;6275075;28;20231;-72
2022/07/31 10:53:27;;;;;;;2.38;2.00;;;;;;;26.63;44.03;101480.44;6274438;28;20247;-73
2022/07/31 10:57:23;;;;;;;3.28;2.00;;;;;;;26.82;43.97;101489.66;6270094;28;20239;-73
2022/07/31 11:01:06;;;;;;;1.92;1.83;;;;;;;25.49;45.03;101475.22;6276008;28;20238;-72
2022/07/31 11:04:36;;;;;;;3.88;2.63;;;;;;;25.80;45.45;101480.81;6271200;28;20219;-73
2022/07/31 11:08:25;;;;;;;4.50;2.95;;;;;;;26.29;45.68;101471.78;6273455;28;20227;-72
2022/07/31 11:11:56;;;;;;;3.35;2.50;;;;;;;25.73;45.60;101464.28;6275144;28;20231;-72
2022/07/31 11:15:29;;;;;;;3.10;1.80;;;;;;;25.83;46.27;101466.53;6265375;28;20224;-72
2022/07/31 11:19:09;;;;;;;2.97;1.60;;;;;;;26.35;45.50;101455.16;6276053;28;20222;-73
2022/07/31 11:22:30;;;;;;;2.30;2.10;;;;;;;25.91;45.21;101453.31;6277742;28;20236;-73
2022/07/31 11:25:51;;;;;;;2.22;1.95;;;;;;;25.62;45.42;101450.28;6270656;28;20771;-73
2022/07/31 11:29:12;;;;;;;4.43;2.40;;;;;;;25.77;45.85;101445.31;6273095;28;20255;-72
2022/07/31 11:32:34;;;;;;;2.40;2.17;;;;;;;25.71;45.66;101440.69;6247862;28;20235;-72
2022/07/31 11:35:56;;;;;;;2.60;2.25;;;;;;;25.94;44.95;101435.44;6249921;28;20676;-72
2022/07/31 11:39:17;;;;;;;4.78;2.13;;;;;;;26.57;44.20;101430.72;6270558;28;20271;-72
2022/07/31 11:42:43;;;;;;;3.42;2.60;;;;;;;27.02;43.79;101423.88;6268319;28;20224;-71
2022/07/31 11:46:05;;;;;;;4.38;2.25;;;;;;;27.12;43.26;101426.94;6274324;28;20232;-72
2022/07/31 11:49:31;;;;;;;3.83;2.78;;;;;;;26.10;43.30;101419.19;6272722;28;20774;-70
2022/07/31 11:53:02;;;;;;;2.40;2.10;;;;;;;26.88;42.82;101414.88;6273954;28;20228;-71
2022/07/31 11:56:25;;;;;;;2.60;2.40;;;;;;;27.12;41.47;101412.28;6278147;28;20323;-72
2022/07/31 11:59:46;;;;;;;3.88;2.17;;;;;;;26.90;41.31;101415.50;6269679;28;20239;-72
2022/07/31 12:03:08;;;;;;;3.90;2.65;;;;;;;27.06;42.75;101402.94;6278619;28;20227;-72
2022/07/31 12:06:30;;;;;;;5.57;2.55;;;;;;;26.78;42.23;101405.41;6281804;28;20231;-70
2022/07/31 12:09:52;;;;;;;3.35;2.92;;;;;;;26.52;42.92;101408.41;6276177;28;20528;-72
2022/07/31 12:13:15;;;;;;;2.83;2.15;;;;;;;27.00;43.01;101391.94;6281872;28;22636;-73
2022/07/31 12:16:40;;;;;;;5.82;2.63;;;;;;;27.43;41.45;101385.22;6276212;28;20219;-73
2022/07/31 12:20:06;;;;;;;4.10;2.58;;;;;;;27.49;41.39;101377.94;6272124;28;20234;-73
2022/07/31 12:23:39;;;;;;;2.13;1.75;;;;;;;27.79;41.27;101375.97;6272182;28;20732;-72
2022/07/31 12:27:00;;;;;;;3.97;2.25;;;;;;;27.79;40.77;101364.88;6265631;28;20219;-73
2022/07/31 12:30:24;;;;;;;1.98;1.88;;;;;;;27.59;40.50;101353.25;6267303;28;20223;-72
2022/07/31 12:33:45;;;;;;;2.85;2.15;;;;;;;27.92;40.46;101352.72;6255911;28;20234;-73
2022/07/31 12:37:10;;;;;;;3.78;2.63;;;;;;;27.21;41.88;101348.03;6262139;28;20219;-72
2022/07/31 12:40:32;;;;;;;2.70;2.45;;;;;;;27.87;40.59;101334.03;6252236;28;20227;-72
2022/07/31 12:43:53;;;;;;;3.05;1.95;;;;;;;28.39;40.08;101327.59;6256536;28;20231;-72
2022/07/31 12:47:20;;;;;;;3.90;2.40;;;;;;;27.82;41.02;101324.75;6245550;28;20238;-75
2022/07/31 12:50:41;;;;;;;4.13;2.17;;;;;;;26.85;42.35;101326.75;6249833;28;20227;-72
2022/07/31 12:54:03;;;;;;;3.65;3.10;;;;;;;26.63;42.61;101321.91;6251827;28;20748;-71
2022/07/31 12:57:26;;;;;;;2.97;1.83;;;;;;;26.51;42.96;101309.91;6254986;28;20998;-73
2022/07/31 13:00:47;;;;;;;2.25;1.90;;;;;;;26.46;43.46;101318.03;6262029;28;20243;-72
2022/07/31 13:04:08;;;;;;;3.42;2.47;;;;;;;26.08;44.02;101312.69;6274961;28;20239;-71
2022/07/31 13:07:29;;;;;;;2.60;2.42;;;;;;;25.63;44.28;101308.38;6273894;28;20612;-71
2022/07/31 13:10:50;;;;;;;2.03;1.92;;;;;;;25.92;43.92;101310.47;6278077;28;21033;-72
2022/07/31 13:14:13;;;;;;;3.97;2.30;;;;;;;25.79;43.66;101327.16;6266300;28;20222;-71
2022/07/31 13:17:33;;;;;;;3.42;2.58;;;;;;;25.52;44.40;101306.31;6262260;28;20801;-71
2022/07/31 13:20:55;;;;;;;2.72;2.53;;;;;;;25.21;44.92;101304.38;6272048;28;20263;-71
2022/07/31 13:24:16;;;;;;;4.20;2.65;;;;;;;25.08;44.99;101312.72;6274865;28;20623;-73
2022/07/31 13:27:38;;;;;;;4.45;2.00;;;;;;;24.98;45.84;101307.69;6277054;28;20223;-72
2022/07/31 13:31:00;;;;;;;3.95;2.63;;;;;;;25.03;46.28;101307.03;6276830;28;20247;-71
2022/07/31 13:34:23;;;;;;;2.83;2.53;;;;;;;24.93;46.68;101304.72;6278352;28;20266;-71
2022/07/31 13:37:45;;;;;;;3.78;2.95;;;;;;;25.10;46.46;101303.16;6278063;28;20242;-70
2022/07/31 13:41:22;;;;;;;3.45;3.00;;;;;;;25.07;46.90;101294.47;6270940;28;20227;-71
2022/07/31 13:44:44;;;;;;;3.47;2.55;;;;;;;25.30;46.40;101305.81;6278234;28;20238;-71
2022/07/31 13:48:06;;;;;;;5.25;2.95;;;;;;;25.27;46.54;101296.03;6272810;28;20372;-72
2022/07/31 13:51:27;;;;;;;4.13;2.80;;;;;;;25.43;46.60;101291.94;6251745;28;20346;-71
2022/07/31 13:54:48;;;;;;;2.88;2.28;;;;;;;25.06;46.03;101288.09;6253105;28;20326;-71
2022/07/31 13:58:10;;;;;;;2.85;2.53;;;;;;;25.15;46.34;101295.06;6273133;28;20219;-70
2022/07/31 14:01:32;;;;;;;3.38;3.08;;;;;;;25.01;46.88;101282.38;6239152;28;20248;-72
2022/07/31 14:04:54;;;;;;;2.53;2.33;;;;;;;24.80;47.49;101284.63;6257006;28;20771;-72
2022/07/31 14:08:16;;;;;;;4.55;3.25;;;;;;;24.76;47.87;101281.47;6254845;28;20231;-72
2022/07/31 14:11:37;;;;;;;4.78;2.90;;;;;;;24.61;48.19;101278.94;6260963;28;20219;-73
2022/07/31 14:14:58;;;;;;;4.70;3.65;;;;;;;24.81;48.28;101267.00;6257665;28;21750;-73
2022/07/31 14:18:19;;;;;;;3.60;2.47;;;;;;;24.91;48.58;101276.50;6263178;28;20231;-73
2022/07/31 14:21:41;;;;;;;6.40;2.38;;;;;;;25.11;48.53;101276.41;6260889;28;20227;-74
2022/07/31 14:25:03;;;;;;;3.08;2.78;;;;;;;24.75;49.62;101276.16;6244652;28;20633;-76
2022/07/31 14:28:26;;;;;;;4.22;2.75;;;;;;;24.81;49.10;101267.00;6249308;28;20228;-73
2022/07/31 14:31:47;;;;;;;5.10;3.20;;;;;;;24.99;49.24;101269.91;6249946;28;20243;-73
2022/07/31 14:35:09;;;;;;;4.63;2.85;;;;;;;24.91;50.02;101259.13;6243462;28;20240;-73
2022/07/31 14:38:32;;;;;;;3.25;2.88;;;;;;;24.84;50.09;101263.81;6268818;28;20235;-74
2022/07/31 14:41:53;;;;;;;3.55;3.00;;;;;;;24.63;50.07;101269.59;6267011;28;20234;-73
2022/07/31 14:45:14;;;;;;;7.65;4.13;;;;;;;24.32;50.39;101267.59;6248167;28;20354;-71
2022/07/31 14:48:35;;;;;;;3.83;2.92;;;;;;;24.55;51.35;101262.44;6240108;28;20256;-73
2022/07/31 14:51:56;;;;;;;5.97;3.10;;;;;;;24.37;52.16;101271.38;6272457;28;20235;-73
2022/07/31 14:55:19;;;;;;;4.63;2.83;;;;;;;24.20;52.58;101267.41;6251615;28;20548;-73
2022/07/31 14:58:40;;;;;;;4.75;3.42;;;;;;;24.22;54.12;101275.47;6264026;28;20235;-73
2022/07/31 15:02:01;;;;;;;5.80;3.08;;;;;;;23.73;54.92;101286.94;6261941;28;20863;-73
2022/07/31 15:05:22;;;;;;;5.10;4.00;;;;;;;23.75;56.33;101285.66;6275485;28;20227;-74
2022/07/31 15:08:43;;;;;;;3.65;3.17;;;;;;;23.59;58.18;101304.50;6261328;28;20243;-74
2022/07/31 15:12:07;;;;;;;4.80;3.92;;;;;;;23.21;62.49;101311.59;6267370;28;20231;-73
2022/07/31 15:15:28;;;;;;;5.90;5.15;;;;;;;22.97;63.79;101322.09;6269354;28;20259;-74
2022/07/31 15:18:49;;;;;;;6.35;4.20;;;;;;;22.78;65.65;101328.34;6268137;28;20231;-73
2022/07/31 15:22:10;;;;;;;6.00;4.72;;;;;;;22.64;67.07;101320.25;6272833;28;20231;-72
2022/07/31 15:25:31;;;;;;;5.57;5.05;;;;;;;22.36;67.88;101322.19;6249545;28;20227;-72
2022/07/31 15:28:54;;;;;;;12.57;11.38;;;;;;;22.20;69.68;101334.31;6265986;28;20231;-73
2022/07/31 15:32:15;;;;;;;5.32;4.82;;;;;;;22.26;70.19;101320.63;6276761;28;20227;-73
2022/07/31 15:35:36;;;;;;;11.20;8.02;;;;;;;22.12;72.17;101326.25;6249048;28;20595;-73
2022/07/31 15:38:57;;;;;;;6.05;5.53;;;;;;;22.13;71.88;101323.28;6247148;28;20247;-73
2022/07/31 15:42:18;;;;;;;19.70;17.70;;;;;;;22.39;71.13;101321.75;6263240;28;20510;-74
2022/07/31 15:45:40;;;;;;;15.48;14.02;;;;;;;22.50;71.23;101313.81;6275792;28;20223;-73
2022/07/31 15:49:02;;;;;;;9.55;8.60;;;;;;;22.36;70.65;101311.19;6275858;28;20231;-73
2022/07/31 15:52:23;;;;;;;6.65;6.05;;;;;;;22.65;69.34;101311.81;6276289;28;20227;-71
2022/07/31 15:55:44;;;;;;;21.23;19.27;;;;;;;22.66;70.71;101307.16;6249407;28;20227;-73